Time,TemperatureF,DewpointF,PressureIn,WindDirection,WindDirectionDegrees,WindSpeedMPH,WindSpeedGustMPH,Humidity,HourlyPrecipIn,Conditions,Clouds,dailyrainin,SoftwareType,DateUTC
2013-02-11 00:00:00,32.5,32.3,29.38,South,191,0.0,0.0,99,0.00,,---,0.00,VWS V14.00,2013-02-11 06:00:00,
2013-02-11 00:05:00,32.7,32.5,29.38,SE,129,0.0,0.0,99,0.00,,---,0.00,VWS V14.00,2013-02-11 06:05:00,
2013-02-11 00:10:00,32.7,32.5,29.38,SE,127,0.0,0.0,99,0.00,,---,0.00,VWS V14.00,2013-02-11 06:10:00,
2013-02-11 08:27:00,29.1,28.9,29.50,NW,318,9.5,9.5,99,0.00,,---,0.00,VWS V14.00,2013-02-11 14:27:00,
2013-02-11 08:32:00,29.1,28.9,29.53,NNW,333,12.6,12.6,99,0.00,,---,0.00,VWS V14.00,2013-02-11 14:32:00,
2013-02-11 08:37:00,28.9,28.9,29.53,NNW,333,3.9,3.9,100,0.00,,---,0.00,VWS V14.00,2013-02-11 14:37:00,
2013-02-11 08:42:00,28.9,28.7,29.53,NNW,334,10.3,10.3,99,0.00,,---,0.00,VWS V14.00,2013-02-11 14:42:00,
2013-02-11 08:47:00,28.9,28.7,29.53,NNW,331,6.2,6.2,99,0.00,,---,0.00,VWS V14.00,2013-02-11 14:47:00,
2013-02-11 08:53:00,28.8,28.5,29.53,North,1,7.3,7.3,99,0.00,,---,0.00,VWS V14.00,2013-02-11 14:53:00,
2013-02-11 08:58:00,28.8,28.5,29.53,NNW,340,7.8,7.8,99,0.00,,---,0.00,VWS V14.00,2013-02-11 14:58:00,
2013-02-11 09:03:00,28.8,28.5,29.53,North,353,7.3,7.3,99,0.00,,---,0.00,VWS V14.00,2013-02-11 15:03:00,
2013-02-11 09:08:00,28.6,28.3,29.53,North,10,6.7,6.7,99,0.00,,---,0.00,VWS V14.00,2013-02-11 15:08:00,
2013-02-11 09:13:00,28.6,28.3,29.53,North,2,6.2,6.2,99,0.00,,---,0.00,VWS V14.00,2013-02-11 15:13:00,
2013-02-11 09:18:00,28.6,28.3,29.56,NNW,341,10.3,10.3,99,0.00,,---,0.00,VWS V14.00,2013-02-11 15:18:00,
2013-02-11 09:23:00,28.6,28.3,29.56,NNW,328,4.5,4.5,99,0.00,,---,0.00,VWS V14.00,2013-02-11 15:23:00,
2013-02-11 09:28:00,28.6,28.3,29.56,North,9,13.7,13.7,99,0.00,,---,0.00,VWS V14.00,2013-02-11 15:28:00,
2013-02-11 09:33:00,28.6,28.3,29.56,NW,313,6.7,6.7,99,0.00,,---,0.00,VWS V14.00,2013-02-11 15:33:00,
2013-02-11 09:38:00,28.6,28.3,29.56,NNW,334,13.7,13.7,99,0.00,,---,0.00,VWS V14.00,2013-02-11 15:38:00,
2013-02-11 09:43:00,28.6,28.3,29.56,North,0,6.2,6.2,99,0.00,,---,0.00,VWS V14.00,2013-02-11 15:43:00,
2013-02-11 09:48:00,28.6,28.3,29.56,North,353,10.3,10.3,99,0.00,,---,0.00,VWS V14.00,2013-02-11 15:48:00,
2013-02-11 09:53:00,28.6,28.3,29.56,WNW,294,5.0,5.0,99,0.00,,---,0.00,VWS V14.00,2013-02-11 15:53:00,
2013-02-11 09:58:00,28.6,28.3,29.56,NNE,15,6.7,6.7,99,0.00,,---,0.00,VWS V14.00,2013-02-11 15:58:00,
2013-02-11 10:03:00,28.6,28.3,29.56,NNW,330,10.9,10.9,99,0.00,,---,0.00,VWS V14.00,2013-02-11 16:03:00,
2013-02-11 10:08:00,28.8,28.5,29.56,NNE,22,7.3,7.3,99,0.00,,---,0.00,VWS V14.00,2013-02-11 16:08:00,
2013-02-11 10:13:00,28.8,28.5,29.56,NW,313,10.9,10.9,99,0.00,,---,0.00,VWS V14.00,2013-02-11 16:13:00,
2013-02-11 10:18:00,28.6,28.1,29.59,North,0,5.0,5.0,98,0.00,,---,0.00,VWS V14.00,2013-02-11 16:18:00,
2013-02-11 10:23:00,28.6,28.1,29.59,North,0,6.7,6.7,98,0.00,,---,0.00,VWS V14.00,2013-02-11 16:23:00,
2013-02-11 10:28:00,28.6,28.1,29.59,NNW,327,3.9,3.9,98,0.00,,---,0.00,VWS V14.00,2013-02-11 16:28:00,
2013-02-11 10:33:00,28.6,28.1,29.59,North,4,6.7,6.7,98,0.00,,---,0.00,VWS V14.00,2013-02-11 16:33:00,
2013-02-11 10:38:00,28.6,27.8,29.59,NNW,334,5.6,5.6,97,0.00,,---,0.00,VWS V14.00,2013-02-11 16:38:00,
2013-02-11 10:43:00,28.6,27.8,29.59,NNW,341,7.8,7.8,97,0.00,,---,0.00,VWS V14.00,2013-02-11 16:43:00,
2013-02-11 10:48:00,28.6,27.8,29.62,NW,313,7.3,7.3,97,0.00,,---,0.00,VWS V14.00,2013-02-11 16:48:00,
2013-02-11 10:53:00,28.2,27.5,29.62,North,0,8.9,8.9,97,0.00,,---,0.00,VWS V14.00,2013-02-11 16:53:00,
2013-02-11 10:58:00,28.0,27.3,29.62,NW,320,10.1,10.1,97,0.00,,---,0.00,VWS V14.00,2013-02-11 16:58:00,
2013-02-11 11:03:00,27.9,27.1,29.62,NNE,18,5.0,5.0,97,0.00,,---,0.00,VWS V14.00,2013-02-11 17:03:00,
2013-02-11 11:08:00,27.7,26.7,29.62,North,4,15.9,15.9,96,0.00,,---,0.00,VWS V14.00,2013-02-11 17:08:00,
2013-02-11 11:13:00,27.5,26.5,29.62,NNE,19,13.1,13.1,96,0.00,,---,0.00,VWS V14.00,2013-02-11 17:13:00,
2013-02-11 11:18:00,27.5,26.5,29.62,North,357,5.0,5.0,96,0.00,,---,0.00,VWS V14.00,2013-02-11 17:18:00,
2013-02-11 11:23:00,27.3,26.3,29.62,North,357,4.5,4.5,96,0.00,,---,0.00,VWS V14.00,2013-02-11 17:23:00,
2013-02-11 11:28:00,27.3,26.1,29.62,North,6,13.1,13.1,95,0.00,,---,0.00,VWS V14.00,2013-02-11 17:28:00,
2013-02-11 11:33:00,27.1,25.9,29.62,ENE,64,9.5,9.5,95,0.00,,---,0.00,VWS V14.00,2013-02-11 17:33:00,
2013-02-11 11:38:00,27.0,25.7,29.62,NNW,333,5.0,5.0,95,0.00,,---,0.00,VWS V14.00,2013-02-11 17:38:00,
2013-02-11 11:43:00,27.0,25.7,29.62,North,357,10.9,10.9,95,0.00,,---,0.00,VWS V14.00,2013-02-11 17:43:00,
2013-02-11 11:48:00,27.0,25.7,29.65,North,353,10.3,10.3,95,0.00,,---,0.00,VWS V14.00,2013-02-11 17:48:00,
2013-02-11 11:53:00,27.0,25.5,29.65,NNE,20,7.8,7.8,94,0.00,,---,0.00,VWS V14.00,2013-02-11 17:53:00,
2013-02-11 11:59:00,26.8,25.3,29.65,North,0,6.7,6.7,94,0.00,,---,0.00,VWS V14.00,2013-02-11 17:59:00,
2013-02-11 12:04:00,26.8,25.3,29.65,North,1,7.8,7.8,94,0.00,,---,0.00,VWS V14.00,2013-02-11 18:04:00,
2013-02-11 12:09:00,26.8,25.3,29.65,NNW,338,6.7,6.7,94,0.00,,---,0.00,VWS V14.00,2013-02-11 18:09:00,
2013-02-11 12:14:00,26.6,25.1,29.65,NNW,341,7.8,7.8,94,0.00,,---,0.00,VWS V14.00,2013-02-11 18:14:00,
2013-02-11 12:19:00,26.6,25.1,29.65,North,9,6.7,6.7,94,0.00,,---,0.00,VWS V14.00,2013-02-11 18:19:00,
2013-02-11 12:24:00,26.4,24.9,29.65,North,8,6.7,6.7,94,0.00,,---,0.00,VWS V14.00,2013-02-11 18:24:00,
2013-02-11 12:29:00,26.2,24.5,29.65,WNW,300,5.6,5.6,93,0.00,,---,0.00,VWS V14.00,2013-02-11 18:29:00,
2013-02-11 12:34:00,26.1,24.3,29.65,NW,326,6.2,6.2,93,0.00,,---,0.00,VWS V14.00,2013-02-11 18:34:00,
2013-02-11 12:39:00,25.9,24.1,29.65,NW,326,9.5,9.5,93,0.00,,---,0.00,VWS V14.00,2013-02-11 18:39:00,
2013-02-11 12:44:00,25.7,23.7,29.65,NNW,346,10.9,10.9,92,0.00,,---,0.00,VWS V14.00,2013-02-11 18:44:00,
2013-02-11 12:49:00,25.5,23.5,29.67,North,3,10.1,10.1,92,0.00,,---,0.00,VWS V14.00,2013-02-11 18:49:00,
2013-02-11 12:54:00,25.3,23.4,29.67,North,0,8.9,8.9,92,0.00,,---,0.00,VWS V14.00,2013-02-11 18:54:00,
2013-02-11 12:59:00,25.3,23.1,29.67,North,353,13.1,13.1,91,0.00,,---,0.00,VWS V14.00,2013-02-11 18:59:00,
2013-02-11 13:04:00,25.3,23.1,29.67,NW,313,7.3,7.3,91,0.00,,---,0.00,VWS V14.00,2013-02-11 19:04:00,
2013-02-11 13:09:00,25.3,23.1,29.67,NNW,340,2.8,2.8,91,0.00,,---,0.00,VWS V14.00,2013-02-11 19:09:00,
2013-02-11 13:14:00,25.2,22.6,29.67,NNW,334,4.5,4.5,90,0.00,,---,0.00,VWS V14.00,2013-02-11 19:14:00,
2013-02-11 13:19:00,25.2,22.6,29.67,NE,36,6.7,6.7,90,0.00,,---,0.00,VWS V14.00,2013-02-11 19:19:00,
2013-02-11 13:24:00,25.3,22.8,29.67,North,3,3.4,3.4,90,0.00,,---,0.00,VWS V14.00,2013-02-11 19:24:00,
2013-02-11 13:29:00,25.3,22.8,29.67,NW,324,5.0,5.0,90,0.00,,---,0.00,VWS V14.00,2013-02-11 19:29:00,
2013-02-11 13:34:00,25.3,22.8,29.67,NNW,342,4.5,4.5,90,0.00,,---,0.00,VWS V14.00,2013-02-11 19:34:00,
2013-02-11 13:39:00,25.2,22.4,29.67,WSW,247,7.8,7.8,89,0.00,,---,0.00,VWS V14.00,2013-02-11 19:39:00,
2013-02-11 13:44:00,25.0,22.2,29.67,NNW,345,7.8,7.8,89,0.00,,---,0.00,VWS V14.00,2013-02-11 19:44:00,
2013-02-11 13:49:00,24.8,22.0,29.67,North,8,10.3,10.3,89,0.00,,---,0.00,VWS V14.00,2013-02-11 19:49:00,
2013-02-11 13:54:00,24.6,21.9,29.67,North,357,7.3,7.3,89,0.00,,---,0.00,VWS V14.00,2013-02-11 19:54:00,
2013-02-11 13:59:00,24.8,21.8,29.67,NNW,341,6.2,6.2,88,0.00,,---,0.00,VWS V14.00,2013-02-11 19:59:00,
2013-02-11 14:04:00,25.0,21.9,29.70,West,276,6.7,6.7,88,0.00,,---,0.00,VWS V14.00,2013-02-11 20:04:00,
2013-02-11 14:09:00,24.8,21.8,29.70,NNW,345,3.9,3.9,88,0.00,,---,0.00,VWS V14.00,2013-02-11 20:09:00,
2013-02-11 14:14:00,24.8,21.5,29.70,NNW,346,4.5,4.5,87,0.00,,---,0.00,VWS V14.00,2013-02-11 20:14:00,
2013-02-11 14:19:00,24.6,21.3,29.70,NNW,346,10.1,10.1,87,0.00,,---,0.00,VWS V14.00,2013-02-11 20:19:00,
2013-02-11 14:24:00,24.6,21.3,29.70,NW,322,2.8,2.8,87,0.00,,---,0.00,VWS V14.00,2013-02-11 20:24:00,
2013-02-11 14:29:00,24.4,21.1,29.70,North,0,3.9,3.9,87,0.00,,---,0.00,VWS V14.00,2013-02-11 20:29:00,
2013-02-11 14:34:00,24.4,21.1,29.70,North,1,5.0,5.0,87,0.00,,---,0.00,VWS V14.00,2013-02-11 20:34:00,
2013-02-11 14:39:00,24.4,20.9,29.70,NNE,15,3.9,3.9,86,0.00,,---,0.00,VWS V14.00,2013-02-11 20:39:00,
2013-02-11 14:44:00,24.4,20.9,29.70,North,353,10.1,10.1,86,0.00,,---,0.00,VWS V14.00,2013-02-11 20:44:00,
2013-02-11 14:49:00,24.3,20.7,29.73,West,263,8.9,8.9,86,0.00,,---,0.00,VWS V14.00,2013-02-11 20:49:00,
2013-02-11 14:54:00,24.3,20.7,29.73,North,2,6.7,6.7,86,0.00,,---,0.00,VWS V14.00,2013-02-11 20:54:00,
2013-02-11 14:59:00,24.1,20.2,29.73,North,357,6.2,6.2,85,0.00,,---,0.00,VWS V14.00,2013-02-11 20:59:00,
2013-02-11 15:04:00,23.9,20.1,29.73,North,0,6.7,6.7,85,0.00,,---,0.00,VWS V14.00,2013-02-11 21:04:00,
2013-02-11 15:09:00,23.9,20.1,29.73,West,278,7.8,7.8,85,0.00,,---,0.00,VWS V14.00,2013-02-11 21:09:00,
2013-02-11 15:15:00,23.7,19.9,29.73,North,353,5.0,5.0,85,0.00,,---,0.00,VWS V14.00,2013-02-11 21:15:00,
2013-02-11 15:20:00,23.7,19.9,29.73,NW,315,4.5,4.5,85,0.00,,---,0.00,VWS V14.00,2013-02-11 21:20:00,
2013-02-11 15:25:00,23.5,19.7,29.73,North,357,3.9,3.9,85,0.00,,---,0.00,VWS V14.00,2013-02-11 21:25:00,
2013-02-11 15:30:00,23.5,19.7,29.73,NNW,341,6.2,6.2,85,0.00,,---,0.00,VWS V14.00,2013-02-11 21:30:00,
2013-02-11 15:35:00,23.5,19.4,29.76,NW,322,5.0,5.0,84,0.00,,---,0.00,VWS V14.00,2013-02-11 21:35:00,
2013-02-11 15:40:00,23.5,19.4,29.76,North,357,5.0,5.0,84,0.00,,---,0.00,VWS V14.00,2013-02-11 21:40:00,
2013-02-11 15:45:00,23.5,19.4,29.76,NNW,336,7.8,7.8,84,0.00,,---,0.00,VWS V14.00,2013-02-11 21:45:00,
2013-02-11 15:50:00,23.5,19.4,29.76,North,350,4.5,4.5,84,0.00,,---,0.00,VWS V14.00,2013-02-11 21:50:00,
2013-02-11 15:55:00,23.5,19.4,29.76,NNW,331,4.5,4.5,84,0.00,,---,0.00,VWS V14.00,2013-02-11 21:55:00,
2013-02-11 16:00:00,23.5,19.4,29.76,NW,315,4.5,4.5,84,0.00,,---,0.00,VWS V14.00,2013-02-11 22:00:00,
2013-02-11 16:05:00,23.5,19.4,29.76,NW,317,6.2,6.2,84,0.00,,---,0.00,VWS V14.00,2013-02-11 22:05:00,
2013-02-11 16:10:00,23.5,19.4,29.76,North,10,6.7,6.7,84,0.00,,---,0.00,VWS V14.00,2013-02-11 22:10:00,
2013-02-11 16:15:00,23.5,19.4,29.76,NNW,343,4.5,4.5,84,0.00,,---,0.00,VWS V14.00,2013-02-11 22:15:00,
2013-02-11 16:20:00,23.5,19.4,29.76,North,357,7.8,7.8,84,0.00,,---,0.00,VWS V14.00,2013-02-11 22:20:00,
2013-02-11 16:25:00,23.5,19.4,29.76,NNW,344,8.4,8.4,84,0.00,,---,0.00,VWS V14.00,2013-02-11 22:25:00,
2013-02-11 16:30:00,23.5,19.4,29.76,NW,318,4.5,4.5,84,0.00,,---,0.00,VWS V14.00,2013-02-11 22:30:00,
2013-02-11 16:35:00,23.5,19.4,29.76,North,8,7.8,7.8,84,0.00,,---,0.00,VWS V14.00,2013-02-11 22:35:00,
2013-02-11 16:40:00,23.5,19.4,29.76,WNW,282,5.0,5.0,84,0.00,,---,0.00,VWS V14.00,2013-02-11 22:40:00,
2013-02-11 16:45:00,23.5,19.4,29.76,North,357,7.8,7.8,84,0.00,,---,0.00,VWS V14.00,2013-02-11 22:45:00,
2013-02-11 16:50:00,23.7,19.6,29.79,North,0,7.3,7.3,84,0.00,,---,0.00,VWS V14.00,2013-02-11 22:50:00,
2013-02-11 16:55:00,23.7,19.6,29.79,NNW,341,7.8,7.8,84,0.00,,---,0.00,VWS V14.00,2013-02-11 22:55:00,
2013-02-11 17:00:00,23.5,19.4,29.79,NNW,341,12.6,12.6,84,0.00,,---,0.00,VWS V14.00,2013-02-11 23:00:00,
2013-02-11 17:05:00,23.5,19.4,29.79,North,353,4.5,4.5,84,0.00,,---,0.00,VWS V14.00,2013-02-11 23:05:00,
2013-02-11 17:10:00,23.5,19.4,29.79,North,353,7.3,7.3,84,0.00,,---,0.00,VWS V14.00,2013-02-11 23:10:00,
2013-02-11 17:15:00,23.4,19.2,29.79,NNE,22,7.8,7.8,84,0.00,,---,0.00,VWS V14.00,2013-02-11 23:15:00,
2013-02-11 17:20:00,23.4,19.2,29.79,WNW,301,5.0,5.0,84,0.00,,---,0.00,VWS V14.00,2013-02-11 23:20:00,
2013-02-11 17:25:00,23.4,19.2,29.79,North,0,13.7,13.7,84,0.00,,---,0.00,VWS V14.00,2013-02-11 23:25:00,
2013-02-11 17:30:00,23.4,19.2,29.79,NNE,27,7.3,7.3,84,0.00,,---,0.00,VWS V14.00,2013-02-11 23:30:00,
2013-02-11 17:35:00,23.4,19.5,29.79,North,357,7.3,7.3,85,0.00,,---,0.00,VWS V14.00,2013-02-11 23:35:00,
2013-02-11 17:40:00,23.2,19.4,29.79,North,353,4.5,4.5,85,0.00,,---,0.00,VWS V14.00,2013-02-11 23:40:00,
2013-02-11 17:45:00,23.2,19.4,29.79,WNW,287,3.4,3.4,85,0.00,,---,0.00,VWS V14.00,2013-02-11 23:45:00,
2013-02-11 17:50:00,23.2,19.4,29.82,NNW,328,6.2,6.2,85,0.00,,---,0.00,VWS V14.00,2013-02-11 23:50:00,
2013-02-11 17:55:00,23.2,19.4,29.82,NW,325,7.3,7.3,85,0.00,,---,0.00,VWS V14.00,2013-02-11 23:55:00,
2013-02-11 18:00:00,23.0,19.2,29.82,NNW,342,7.8,7.8,85,0.00,,---,0.00,VWS V14.00,2013-02-12 00:00:00,
2013-02-11 18:05:00,23.0,19.2,29.82,NNW,342,7.8,7.8,85,0.00,,---,0.00,VWS V14.00,2013-02-12 00:05:00,
2013-02-11 18:10:00,22.8,19.3,29.82,NW,313,7.3,7.3,86,0.00,,---,0.00,VWS V14.00,2013-02-12 00:10:00,
2013-02-11 18:15:00,22.8,19.3,29.82,NW,312,7.3,7.3,86,0.00,,---,0.00,VWS V14.00,2013-02-12 00:15:00,
2013-02-11 18:20:00,22.8,19.3,29.82,North,349,6.2,6.2,86,0.00,,---,0.00,VWS V14.00,2013-02-12 00:20:00,
2013-02-11 18:25:00,22.8,19.3,29.82,North,353,6.7,6.7,86,0.00,,---,0.00,VWS V14.00,2013-02-12 00:25:00,
2013-02-11 18:30:00,22.8,19.3,29.82,North,3,6.7,6.7,86,0.00,,---,0.00,VWS V14.00,2013-02-12 00:30:00,
2013-02-11 18:35:00,22.8,19.3,29.85,North,0,7.8,7.8,86,0.00,,---,0.00,VWS V14.00,2013-02-12 00:35:00,
2013-02-11 18:40:00,22.8,19.3,29.85,NE,48,6.7,6.7,86,0.00,,---,0.00,VWS V14.00,2013-02-12 00:40:00,
2013-02-11 18:45:00,22.8,19.3,29.85,NW,319,3.4,3.4,86,0.00,,---,0.00,VWS V14.00,2013-02-12 00:45:00,
2013-02-11 18:51:00,22.8,19.3,29.85,NNE,28,6.7,6.7,86,0.00,,---,0.00,VWS V14.00,2013-02-12 00:51:00,
2013-02-11 18:56:00,22.6,19.1,29.85,North,353,3.9,3.9,86,0.00,,---,0.00,VWS V14.00,2013-02-12 00:56:00,
2013-02-11 19:01:00,22.6,19.1,29.85,North,357,7.8,7.8,86,0.00,,---,0.00,VWS V14.00,2013-02-12 01:01:00,
2013-02-11 19:06:00,22.6,19.1,29.85,NW,314,10.9,10.9,86,0.00,,---,0.00,VWS V14.00,2013-02-12 01:06:00,
2013-02-11 19:11:00,22.6,19.1,29.85,WNW,299,6.2,6.2,86,0.00,,---,0.00,VWS V14.00,2013-02-12 01:11:00,
2013-02-11 19:16:00,22.6,19.1,29.85,NNW,334,0.0,0.0,86,0.00,,---,0.00,VWS V14.00,2013-02-12 01:16:00,
2013-02-11 19:21:00,22.6,19.1,29.85,WNW,291,0.0,0.0,86,0.00,,---,0.00,VWS V14.00,2013-02-12 01:21:00,
2013-02-11 19:26:00,22.6,19.1,29.85,NNW,335,0.0,0.0,86,0.00,,---,0.00,VWS V14.00,2013-02-12 01:26:00,
2013-02-11 19:31:00,22.6,19.1,29.85,NNE,17,0.0,0.0,86,0.00,,---,0.00,VWS V14.00,2013-02-12 01:31:00,
2013-02-11 19:36:00,22.6,19.1,29.88,NNE,19,0.0,0.0,86,0.00,,---,0.00,VWS V14.00,2013-02-12 01:36:00,
2013-02-11 19:41:00,22.6,19.1,29.88,NNW,338,0.0,0.0,86,0.00,,---,0.00,VWS V14.00,2013-02-12 01:41:00,
2013-02-11 19:46:00,22.6,19.1,29.88,NW,304,0.0,0.0,86,0.00,,---,0.00,VWS V14.00,2013-02-12 01:46:00,
2013-02-11 19:51:00,22.6,19.1,29.88,North,353,0.0,0.0,86,0.00,,---,0.00,VWS V14.00,2013-02-12 01:51:00,
2013-02-11 19:56:00,22.6,19.4,29.88,North,357,0.0,0.0,87,0.00,,---,0.00,VWS V14.00,2013-02-12 01:56:00,
2013-02-11 20:01:00,22.6,19.4,29.88,North,9,0.0,0.0,87,0.00,,---,0.00,VWS V14.00,2013-02-12 02:01:00,
2013-02-11 20:06:00,22.6,19.4,29.88,NW,305,0.0,0.0,87,0.00,,---,0.00,VWS V14.00,2013-02-12 02:06:00,
2013-02-11 20:11:00,22.6,19.4,29.88,North,357,0.0,0.0,87,0.00,,---,0.00,VWS V14.00,2013-02-12 02:11:00,
2013-02-11 20:16:00,22.5,19.2,29.88,NW,324,0.0,0.0,87,0.00,,---,0.00,VWS V14.00,2013-02-12 02:16:00,
2013-02-11 20:21:00,22.5,19.2,29.88,NW,308,0.0,0.0,87,0.00,,---,0.00,VWS V14.00,2013-02-12 02:21:00,
2013-02-11 20:26:00,22.5,19.2,29.88,North,353,0.0,0.0,87,0.00,,---,0.00,VWS V14.00,2013-02-12 02:26:00,
2013-02-11 20:31:00,22.5,19.2,29.88,North,353,0.0,0.0,87,0.00,,---,0.00,VWS V14.00,2013-02-12 02:31:00,
2013-02-11 20:36:00,22.5,19.2,29.88,NNW,336,0.0,0.0,87,0.00,,---,0.00,VWS V14.00,2013-02-12 02:36:00,
2013-02-11 20:41:00,22.5,19.2,29.88,North,353,0.0,0.0,87,0.00,,---,0.00,VWS V14.00,2013-02-12 02:41:00,
2013-02-11 20:46:00,22.5,19.2,29.88,NNW,329,0.0,0.0,87,0.00,,---,0.00,VWS V14.00,2013-02-12 02:46:00,
2013-02-11 20:51:00,22.5,19.2,29.88,WNW,301,0.0,0.0,87,0.00,,---,0.00,VWS V14.00,2013-02-12 02:51:00,
2013-02-11 20:56:00,22.5,19.2,29.88,North,6,0.0,0.0,87,0.00,,---,0.00,VWS V14.00,2013-02-12 02:56:00,
2013-02-11 21:01:00,22.5,19.2,29.88,NNW,336,0.0,0.0,87,0.00,,---,0.00,VWS V14.00,2013-02-12 03:01:00,
2013-02-11 21:06:00,22.3,19.0,29.88,North,0,0.0,0.0,87,0.00,,---,0.00,VWS V14.00,2013-02-12 03:06:00,
2013-02-11 21:11:00,22.3,19.0,29.88,NNW,343,0.0,0.0,87,0.00,,---,0.00,VWS V14.00,2013-02-12 03:11:00,
2013-02-11 21:16:00,22.3,19.0,29.88,WNW,298,0.0,0.0,87,0.00,,---,0.00,VWS V14.00,2013-02-12 03:16:00,
2013-02-11 21:21:00,22.3,19.0,29.91,NNW,344,0.0,0.0,87,0.00,,---,0.00,VWS V14.00,2013-02-12 03:21:00,
2013-02-11 21:26:00,22.3,19.0,29.91,North,2,0.0,0.0,87,0.00,,---,0.00,VWS V14.00,2013-02-12 03:26:00,
2013-02-11 21:31:00,22.1,18.8,29.91,WNW,297,0.0,0.0,87,0.00,,---,0.00,VWS V14.00,2013-02-12 03:31:00,
2013-02-11 21:36:00,22.1,18.8,29.91,WNW,303,0.0,0.0,87,0.00,,---,0.00,VWS V14.00,2013-02-12 03:36:00,
2013-02-11 21:41:00,22.1,18.8,29.91,NNW,332,0.0,0.0,87,0.00,,---,0.00,VWS V14.00,2013-02-12 03:41:00,
2013-02-11 21:46:00,22.1,18.8,29.91,North,349,0.0,0.0,87,0.00,,---,0.00,VWS V14.00,2013-02-12 03:46:00,
2013-02-11 21:51:00,22.1,18.8,29.91,NW,316,0.0,0.0,87,0.00,,---,0.00,VWS V14.00,2013-02-12 03:51:00,
2013-02-11 21:56:00,22.1,18.8,29.91,NNW,338,0.0,0.0,87,0.00,,---,0.00,VWS V14.00,2013-02-12 03:56:00,
2013-02-11 22:01:00,22.1,18.8,29.91,NNW,327,0.0,0.0,87,0.00,,---,0.00,VWS V14.00,2013-02-12 04:01:00,
2013-02-11 22:06:00,22.1,18.8,29.91,NNW,345,0.0,0.0,87,0.00,,---,0.00,VWS V14.00,2013-02-12 04:06:00,
2013-02-11 22:11:00,21.9,18.6,29.91,North,353,0.0,0.0,87,0.00,,---,0.00,VWS V14.00,2013-02-12 04:11:00,
2013-02-11 22:16:00,21.9,18.6,29.91,NNW,334,0.0,0.0,87,0.00,,---,0.00,VWS V14.00,2013-02-12 04:16:00,
2013-02-11 22:21:00,21.9,18.6,29.91,North,0,0.0,0.0,87,0.00,,---,0.00,VWS V14.00,2013-02-12 04:21:00,
2013-02-11 22:26:00,21.9,18.6,29.91,North,9,0.0,0.0,87,0.00,,---,0.00,VWS V14.00,2013-02-12 04:26:00,
2013-02-11 22:31:00,21.9,18.6,29.91,WNW,290,0.0,0.0,87,0.00,,---,0.00,VWS V14.00,2013-02-12 04:31:00,
2013-02-11 22:36:00,21.9,18.6,29.91,NW,318,0.0,0.0,87,0.00,,---,0.00,VWS V14.00,2013-02-12 04:36:00,
2013-02-11 22:41:00,21.9,18.6,29.91,West,277,0.0,0.0,87,0.00,,---,0.00,VWS V14.00,2013-02-12 04:41:00,
2013-02-11 22:46:00,21.9,18.6,29.91,NNW,331,0.0,0.0,87,0.00,,---,0.00,VWS V14.00,2013-02-12 04:46:00,
2013-02-11 22:51:00,21.9,18.6,29.94,NW,318,0.0,0.0,87,0.00,,---,0.00,VWS V14.00,2013-02-12 04:51:00,
2013-02-11 22:56:00,21.9,18.6,29.94,North,0,0.0,0.0,87,0.00,,---,0.00,VWS V14.00,2013-02-12 04:56:00,
2013-02-11 23:00:00,21.9,18.6,29.94,North,353,0.0,0.0,87,0.00,,---,0.00,VWS V14.00,2013-02-12 05:00:00,
2013-02-11 23:05:00,21.7,18.5,29.94,NW,323,0.0,0.0,87,0.00,,---,0.00,VWS V14.00,2013-02-12 05:05:00,
2013-02-11 23:10:00,21.7,18.5,29.94,NNW,345,0.0,0.0,87,0.00,,---,0.00,VWS V14.00,2013-02-12 05:10:00,
2013-02-11 23:15:00,21.7,18.2,29.94,North,357,0.0,0.0,86,0.00,,---,0.00,VWS V14.00,2013-02-12 05:15:00,
2013-02-11 23:20:00,21.7,18.2,29.94,NNW,337,0.0,0.0,86,0.00,,---,0.00,VWS V14.00,2013-02-12 05:20:00,
2013-02-11 23:25:00,21.6,18.0,29.94,NNE,20,0.0,0.0,86,0.00,,---,0.00,VWS V14.00,2013-02-12 05:25:00,
2013-02-11 23:30:00,21.6,18.0,29.94,North,10,0.0,0.0,86,0.00,,---,0.00,VWS V14.00,2013-02-12 05:30:00,
2013-02-11 23:35:00,21.6,18.0,29.94,North,357,0.0,0.0,86,0.00,,---,0.00,VWS V14.00,2013-02-12 05:35:00,
2013-02-11 23:40:00,21.6,18.0,29.94,NNW,341,0.0,0.0,86,0.00,,---,0.00,VWS V14.00,2013-02-12 05:40:00,
2013-02-11 23:45:00,21.6,18.0,29.94,North,353,0.0,0.0,86,0.00,,---,0.00,VWS V14.00,2013-02-12 05:45:00,
2013-02-11 23:50:00,21.4,17.9,29.94,NW,310,0.0,0.0,86,0.00,,---,0.00,VWS V14.00,2013-02-12 05:50:00,
2013-02-11 23:55:00,21.4,17.9,29.94,North,0,0.0,0.0,86,0.00,,---,0.00,VWS V14.00,2013-02-12 05:55:00,